»·PEaware :: KLM661 EHAM-KIAH

KLM661 :: EHAM-KIAH

FLIGHT INFORMATION

Flight Status: Arrived
Operator:
KLM
More flights by this operator :: More flights under this callsign
Pilot: Andrew J. (13363)
Aircraft: Unknown
(B789)
More flights by this aircraft type
Origin: EHAM Schiphol
Netherlands
Destination: KIAH G Bush Intercontinental/Houst
United States
More flights between these airports :: More routes between these airports
Route: BERG1Z BERGI UL602 MIMVA L602 EMLON M79 NATEB TLA GOMUP/M084F400 5920N 6030N 6040N 5850N CUDDY/N0493F400 N660B SSM OBK J101 LIT Q33 DHART J180 SWB ZEEKK2
File this flight plan on PilotEdge
Remarks:
Altitude:
(Current/Filed)
40,000ft
Speed:
(Current/Filed)
486kts
Departed: 29-May-18 01:09 AM
Arrived: 29-May-18 12:18 PM
Distance/Time
Traveled:
4343nm/11:08
Distance/Time
To Go:
Arrived

Flight Plot

Page will automatically refresh every two minutes.

Flight plan parsing failed; only flown route is shown


Map Options




Map Legend


Flown Route
Filed Route
Departure Airport
Arrival Airport
Navaid (VOR, NDB)
Fix

Horizontal Profiles

Position Reports

Time Latitude Longitude Heading Altitude Ground
Speed
29-May-18 00:37 52.312786 4.754085 86 18ft 0kts
29-May-18 00:38 52.312786 4.754085 86 18ft 0kts
29-May-18 00:39 52.312786 4.754085 86 18ft 0kts
29-May-18 00:40 52.312786 4.754090 86 18ft 0kts
29-May-18 00:41 52.312786 4.754095 86 18ft 0kts
29-May-18 00:42 52.312786 4.754100 86 18ft 0kts
29-May-18 00:43 52.313331 4.755011 1 18ft 11kts
29-May-18 00:44 52.315027 4.751911 266 18ft 12kts
29-May-18 00:45 52.314771 4.744504 266 18ft 12kts
29-May-18 00:46 52.317730 4.743187 2 18ft 17kts
29-May-18 00:47 52.320356 4.740583 275 18ft 15kts
29-May-18 00:48 52.321179 4.733141 317 18ft 16kts
29-May-18 00:49 52.324578 4.728347 318 18ft 13kts
29-May-18 00:50 52.328163 4.722657 311 18ft 22kts
29-May-18 00:51 52.331475 4.715862 270 18ft 15kts
29-May-18 00:52 52.329089 4.711735 221 18ft 0kts
29-May-18 00:53 52.329071 4.711708 221 18ft 0kts
29-May-18 00:54 52.329071 4.711708 221 18ft 0kts
29-May-18 00:55 52.329071 4.711708 221 18ft 0kts
29-May-18 00:56 52.329071 4.711708 221 18ft 0kts
29-May-18 00:57 52.329071 4.711708 221 18ft 0kts
29-May-18 00:58 52.329071 4.711708 221 18ft 0kts
29-May-18 00:59 52.329071 4.711708 221 18ft 0kts
29-May-18 01:00 52.329071 4.711708 221 18ft 0kts
29-May-18 01:01 52.329071 4.711708 221 18ft 0kts
29-May-18 01:02 52.329071 4.711708 221 18ft 0kts
29-May-18 01:03 52.329071 4.711708 221 18ft 0kts
29-May-18 01:04 52.329071 4.711708 221 18ft 0kts
29-May-18 01:05 52.329071 4.711708 221 18ft 0kts
29-May-18 01:06 52.329070 4.711708 221 18ft 0kts
29-May-18 01:07 52.328801 4.711306 227 18ft 5kts
29-May-18 01:08 52.328759 4.709007 344 18ft 1kts
29-May-18 01:09 52.337938 4.709766 4 18ft 128kts
29-May-18 01:10 52.383191 4.714032 7 2596ft 177kts
29-May-18 01:11 52.443421 4.719810 5 5397ft 251kts
29-May-18 01:12 52.518769 4.727190 5 9056ft 282kts
29-May-18 01:13 52.594756 4.689312 301 11515ft 346kts
29-May-18 01:14 52.647101 4.543973 309 13931ft 384kts
29-May-18 01:15 52.720542 4.410583 311 16720ft 401kts
29-May-18 01:16 52.783520 4.255702 297 19294ft 414kts
29-May-18 01:17 52.840439 4.087198 297 21608ft 426kts
29-May-18 01:18 52.898993 3.913394 297 23731ft 435kts
29-May-18 01:19 52.958424 3.735822 296 25620ft 446kts
29-May-18 01:20 53.018702 3.553876 296 27366ft 454kts
29-May-18 01:21 53.080042 3.367285 296 29035ft 463kts
29-May-18 01:22 53.120068 3.163952 279 30621ft 467kts
29-May-18 01:23 53.147701 2.950299 279 32540ft 468kts
29-May-18 01:24 53.174961 2.740394 279 34434ft 463kts
29-May-18 01:25 53.204304 2.531794 288 36022ft 464kts
29-May-18 01:26 53.266063 2.341161 301 37361ft 468kts
29-May-18 01:27 53.335513 2.158540 300 38646ft 465kts
29-May-18 01:28 53.404355 1.975277 301 39692ft 466kts
29-May-18 01:29 53.473459 1.789696 301 40144ft 472kts
29-May-18 01:30 53.543111 1.601369 301 40160ft 477kts
29-May-18 01:31 53.612950 1.411160 301 40159ft 479kts
29-May-18 01:32 53.682863 1.219175 300 40171ft 480kts
29-May-18 01:33 53.752324 1.027022 300 40186ft 480kts
29-May-18 01:34 53.821837 0.833226 300 40197ft 481kts
29-May-18 01:35 53.890796 0.639450 300 40212ft 481kts
29-May-18 01:36 53.959424 0.444758 300 40222ft 481kts
29-May-18 01:37 54.029465 0.250250 306 40233ft 482kts
29-May-18 01:38 54.118637 0.080137 313 40231ft 481kts
29-May-18 01:39 54.208628 -0.088732 313 40228ft 482kts
29-May-18 01:40 54.299084 -0.258999 313 40247ft 483kts
29-May-18 01:41 54.389091 -0.429742 313 40248ft 483kts
29-May-18 01:42 54.479153 -0.601793 313 40263ft 483kts
29-May-18 01:43 54.568717 -0.774117 313 40279ft 483kts
29-May-18 01:44 54.658032 -0.947189 312 40276ft 483kts
29-May-18 01:45 54.747390 -1.121613 312 40288ft 483kts
29-May-18 01:46 54.836206 -1.296259 312 40293ft 483kts
29-May-18 01:47 54.924769 -1.471647 312 40287ft 483kts
29-May-18 01:48 55.013282 -1.648412 310 40281ft 483kts
29-May-18 01:49 55.082218 -1.848539 297 40282ft 484kts
29-May-18 01:50 55.141893 -2.059874 298 40303ft 487kts
29-May-18 01:51 55.202166 -2.272992 298 40295ft 488kts
29-May-18 01:52 55.262015 -2.486409 298 40289ft 489kts
29-May-18 01:53 55.321496 -2.700802 297 40299ft 489kts
29-May-18 01:54 55.380890 -2.916768 297 40309ft 490kts
29-May-18 01:55 55.439772 -3.132853 297 40312ft 490kts
29-May-18 01:56 55.498519 -3.350656 297 40330ft 491kts
29-May-18 01:57 55.555767 -3.569732 296 40321ft 492kts
29-May-18 01:58 55.612672 -3.789636 296 40313ft 493kts
29-May-18 01:59 55.669377 -4.011154 296 40317ft 493kts
29-May-18 02:00 55.725589 -4.232740 296 40319ft 493kts
29-May-18 02:01 55.781400 -4.455110 296 40313ft 494kts
29-May-18 02:02 55.837064 -4.679142 295 40309ft 494kts
29-May-18 02:03 55.892229 -4.903375 295 40317ft 495kts
29-May-18 02:04 55.947109 -5.128665 295 40297ft 496kts
29-May-18 02:05 56.001855 -5.355999 294 40279ft 498kts
29-May-18 02:06 56.056056 -5.583308 294 40286ft 498kts
29-May-18 02:07 56.109964 -5.811799 294 40281ft 499kts
29-May-18 02:08 56.163741 -6.042108 294 40279ft 500kts
29-May-18 02:09 56.216909 -6.272478 294 40271ft 500kts
29-May-18 02:10 56.269821 -6.504100 293 40282ft 499kts
29-May-18 02:11 56.322113 -6.735532 293 40293ft 499kts
29-May-18 02:12 56.373921 -6.967388 293 40288ft 499kts
29-May-18 02:13 56.425517 -7.200966 292 40280ft 500kts
29-May-18 02:14 56.476586 -7.434697 292 40286ft 501kts
29-May-18 02:15 56.527336 -7.669518 292 40291ft 502kts
29-May-18 02:16 56.577889 -7.906196 292 40280ft 503kts
29-May-18 02:17 56.627872 -8.143011 291 40278ft 503kts
29-May-18 02:18 56.677423 -8.380640 291 40288ft 503kts
29-May-18 02:19 56.726726 -8.619637 291 40279ft 503kts
29-May-18 02:20 56.775347 -8.858133 290 40271ft 502kts
29-May-18 02:21 56.823569 -9.097781 290 40262ft 502kts
29-May-18 02:22 56.871199 -9.337334 290 40269ft 502kts
29-May-18 02:23 56.918416 -9.577586 290 40273ft 503kts
29-May-18 02:24 56.965323 -9.819320 289 40263ft 503kts
29-May-18 02:25 57.014193 -10.058974 294 40272ft 503kts
29-May-18 02:26 57.073198 -10.291354 294 40275ft 502kts
29-May-18 02:27 57.131085 -10.525433 294 40265ft 502kts
29-May-18 02:28 57.188493 -10.759456 293 40262ft 501kts
29-May-18 02:29 57.245435 -10.994044 293 40271ft 502kts
29-May-18 02:30 57.302097 -11.230297 293 40271ft 502kts
29-May-18 02:31 57.358174 -11.466455 293 40260ft 502kts
29-May-18 02:32 57.413737 -11.703123 292 40262ft 501kts
29-May-18 02:33 57.468940 -11.940752 292 40271ft 500kts
29-May-18 02:34 57.523369 -12.177925 292 40266ft 499kts
29-May-18 02:35 57.577572 -12.416570 292 40258ft 499kts
29-May-18 02:36 57.622280 -12.615397 291 40277ft 500kts
29-May-18 02:37 57.675618 -12.855191 291 40274ft 502kts
29-May-18 02:38 57.729217 -13.099169 290 40261ft 509kts
29-May-18 02:39 57.791613 -13.386676 290 40265ft 513kts
29-May-18 02:40 57.844843 -13.634806 289 40274ft 514kts
29-May-18 02:41 57.897748 -13.884839 289 40273ft 514kts
29-May-18 02:42 57.950005 -14.134742 289 40262ft 514kts
29-May-18 02:43 58.001773 -14.385485 288 40266ft 514kts
29-May-18 02:44 58.044691 -14.595706 288 40242ft 514kts
29-May-18 02:45 58.095519 -14.847531 287 40250ft 513kts
29-May-18 02:46 58.145786 -15.099796 287 40257ft 513kts
29-May-18 02:47 58.195755 -15.353738 287 40230ft 514kts
29-May-18 02:48 58.245100 -15.607785 286 40225ft 514kts
29-May-18 02:49 58.294167 -15.863807 286 40215ft 515kts
29-May-18 02:50 58.342646 -16.120069 286 40218ft 515kts
29-May-18 02:51 58.390591 -16.376821 285 40228ft 515kts
29-May-18 02:52 58.438083 -16.634816 285 40221ft 514kts
29-May-18 02:53 58.484831 -16.892076 285 40213ft 512kts
29-May-18 02:54 58.530911 -17.149382 284 40219ft 511kts
29-May-18 02:55 58.576541 -17.407643 284 40226ft 510kts
29-May-18 02:56 58.621479 -17.665380 284 40218ft 510kts
29-May-18 02:57 58.665853 -17.923661 284 40211ft 510kts
29-May-18 02:58 58.709819 -18.183348 283 40221ft 509kts
29-May-18 02:59 58.753083 -18.442434 283 40223ft 509kts
29-May-18 03:00 58.795910 -18.702923 282 40213ft 508kts
29-May-18 03:01 58.838040 -18.962801 282 40212ft 507kts
29-May-18 03:02 58.879635 -19.222841 282 40222ft 507kts
29-May-18 03:03 58.920757 -19.484287 281 40220ft 507kts
29-May-18 03:04 58.961148 -19.745328 281 40202ft 506kts
29-May-18 03:05 59.000799 -20.007002 280 40211ft 506kts
29-May-18 03:06 59.038197 -20.271023 279 40212ft 506kts
29-May-18 03:07 59.074700 -20.534344 279 40175ft 505kts
29-May-18 03:08 59.110636 -20.798142 279 40182ft 505kts
29-May-18 03:09 59.146167 -21.063087 279 40171ft 504kts
29-May-18 03:10 59.180966 -21.327349 278 40165ft 504kts
29-May-18 03:11 59.215138 -21.591980 278 40174ft 503kts
29-May-18 03:12 59.248941 -21.857706 278 40178ft 503kts
29-May-18 03:13 59.281992 -22.122850 277 40169ft 502kts
29-May-18 03:14 59.314625 -22.388766 277 40164ft 501kts
29-May-18 03:15 59.346497 -22.653948 277 40171ft 501kts
29-May-18 03:16 59.377798 -22.919415 276 40134ft 500kts
29-May-18 03:17 59.408643 -23.185936 276 40139ft 500kts
29-May-18 03:18 59.438829 -23.451740 275 40119ft 499kts
29-May-18 03:19 59.468366 -23.717581 275 40099ft 498kts
29-May-18 03:20 59.497492 -23.984164 275 40070ft 497kts
29-May-18 03:21 59.525868 -24.250029 274 40071ft 496kts
29-May-18 03:22 59.553715 -24.516180 274 40080ft 496kts
29-May-18 03:23 59.581087 -24.783722 274 40074ft 497kts
29-May-18 03:24 59.607949 -25.050870 274 40061ft 497kts
29-May-18 03:25 59.634192 -25.318659 273 40067ft 497kts
29-May-18 03:26 59.659978 -25.588118 272 40057ft 498kts
29-May-18 03:27 59.685114 -25.857079 272 40053ft 497kts
29-May-18 03:28 59.709868 -26.126958 272 40060ft 497kts
29-May-18 03:29 59.733862 -26.396493 272 40064ft 497kts
29-May-18 03:30 59.757403 -26.666194 272 40053ft 497kts
29-May-18 03:31 59.780452 -26.937225 272 40049ft 497kts
29-May-18 03:32 59.802862 -27.208312 272 40057ft 498kts
29-May-18 03:33 59.824799 -27.480156 272 40063ft 499kts
29-May-18 03:34 59.846266 -27.753856 271 40049ft 500kts
29-May-18 03:35 59.867121 -28.027159 271 40051ft 500kts
29-May-18 03:36 59.887307 -28.300980 271 40057ft 500kts
29-May-18 03:37 59.907142 -28.575960 271 40036ft 500kts
29-May-18 03:38 59.926298 -28.850403 271 40044ft 500kts
29-May-18 03:39 59.944843 -29.126013 271 40041ft 500kts
29-May-18 03:40 59.962900 -29.401132 271 40046ft 501kts
29-May-18 03:41 59.980342 -29.676683 271 40027ft 501kts
29-May-18 03:42 59.996855 -29.953679 270 40030ft 501kts
29-May-18 03:43 60.008625 -30.230491 268 40036ft 500kts
29-May-18 03:44 60.018281 -30.507049 268 40029ft 499kts
29-May-18 03:45 60.027401 -30.784347 268 40019ft 498kts
29-May-18 03:46 60.035920 -31.060645 268 40024ft 498kts
29-May-18 03:47 60.043852 -31.336853 267 40021ft 497kts
29-May-18 03:48 60.051205 -31.613773 267 40028ft 497kts
29-May-18 03:49 60.057986 -31.889556 267 40035ft 496kts
29-May-18 03:50 60.064185 -32.165388 267 40027ft 496kts
29-May-18 03:51 60.069828 -32.442069 267 40017ft 496kts
29-May-18 03:52 60.074837 -32.717955 267 40022ft 496kts
29-May-18 03:53 60.079335 -32.993920 267 40027ft 496kts
29-May-18 03:54 60.083221 -33.270898 267 40017ft 496kts
29-May-18 03:55 60.086548 -33.547111 267 40010ft 497kts
29-May-18 03:56 60.089291 -33.824304 267 40017ft 496kts
29-May-18 03:57 60.091458 -34.100522 267 40019ft 496kts
29-May-18 03:58 60.093045 -34.376785 267 40008ft 496kts
29-May-18 03:59 60.094069 -34.653873 266 40004ft 496kts
29-May-18 04:00 60.094499 -34.929977 266 40013ft 496kts
29-May-18 04:01 60.094347 -35.205899 267 40012ft 495kts
29-May-18 04:02 60.093623 -35.482534 267 40001ft 495kts
29-May-18 04:03 60.092351 -35.757905 266 40000ft 494kts
29-May-18 04:04 60.090495 -36.032994 266 40009ft 494kts
29-May-18 04:05 60.088058 -36.308793 266 40007ft 494kts
29-May-18 04:06 60.085038 -36.583519 266 39996ft 494kts
29-May-18 04:07 60.081475 -36.857991 266 40000ft 493kts
29-May-18 04:08 60.077347 -37.133143 266 40023ft 493kts
29-May-18 04:09 60.072647 -37.407024 266 39950ft 492kts
29-May-18 04:10 60.067353 -37.681105 266 39910ft 491kts
29-May-18 04:11 60.061569 -37.953860 266 39918ft 491kts
29-May-18 04:12 60.055209 -38.226192 266 39914ft 490kts
29-May-18 04:13 60.048279 -38.499319 266 39905ft 490kts
29-May-18 04:14 60.040810 -38.771217 265 39906ft 490kts
29-May-18 04:15 60.032790 -39.042809 266 39913ft 489kts
29-May-18 04:16 60.024178 -39.314653 265 39902ft 488kts
29-May-18 04:17 60.015088 -39.584929 265 39881ft 487kts
29-May-18 04:18 60.004579 -39.854240 263 39887ft 486kts
29-May-18 04:19 59.983812 -40.121396 255 39891ft 485kts
29-May-18 04:20 59.943023 -40.378161 253 39882ft 486kts
29-May-18 04:21 59.902971 -40.635890 253 39879ft 485kts
29-May-18 04:22 59.862323 -40.891593 252 39887ft 484kts
29-May-18 04:23 59.821334 -41.146110 252 39888ft 483kts
29-May-18 04:24 59.779780 -41.400331 252 39877ft 482kts
29-May-18 04:25 59.737969 -41.652786 252 39877ft 482kts
29-May-18 04:26 59.695654 -41.904473 252 39887ft 482kts
29-May-18 04:27 59.652767 -42.156271 252 39884ft 481kts
29-May-18 04:28 59.609523 -42.406268 252 39873ft 481kts
29-May-18 04:29 59.565888 -42.655271 251 39876ft 480kts
29-May-18 04:30 59.521811 -42.903862 251 39886ft 479kts
29-May-18 04:31 59.477498 -43.150423 251 39881ft 478kts
29-May-18 04:32 59.432747 -43.395803 251 39871ft 477kts
29-May-18 04:33 59.387519 -43.640885 251 39878ft 476kts
29-May-18 04:34 59.342051 -43.884223 251 39881ft 476kts
29-May-18 04:35 59.295982 -44.127442 250 39882ft 475kts
29-May-18 04:36 59.249766 -44.368630 250 39869ft 474kts
29-May-18 04:37 59.203174 -44.608850 250 39875ft 473kts
29-May-18 04:38 59.156058 -44.848608 249 39884ft 472kts
29-May-18 04:39 59.108758 -45.086632 249 39875ft 471kts
29-May-18 04:40 59.061091 -45.323566 249 39870ft 470kts
29-May-18 04:41 59.012931 -45.560159 249 39861ft 470kts
29-May-18 04:42 58.964549 -45.795058 249 39854ft 469kts
29-May-18 04:43 58.915826 -46.028866 248 39843ft 468kts
29-May-18 04:44 58.866702 -46.262099 248 39849ft 466kts
29-May-18 04:45 58.817430 -46.493300 248 39855ft 466kts
29-May-18 04:46 58.767773 -46.723632 248 39844ft 465kts
29-May-18 04:47 58.717589 -46.953849 248 39837ft 465kts
29-May-18 04:48 58.667226 -47.182425 247 39842ft 465kts
29-May-18 04:49 58.616356 -47.410964 247 39847ft 464kts
29-May-18 04:50 58.565268 -47.637707 247 39839ft 463kts
29-May-18 04:51 58.513921 -47.863298 247 39827ft 462kts
29-May-18 04:52 58.462052 -48.088764 246 39835ft 462kts
29-May-18 04:53 58.418742 -48.275337 246 39834ft 462kts
29-May-18 04:54 58.357612 -48.535720 246 39823ft 462kts
29-May-18 04:55 58.304635 -48.758912 246 39824ft 462kts
29-May-18 04:56 58.251459 -48.980692 245 39831ft 462kts
29-May-18 04:57 58.197912 -49.201836 245 39825ft 462kts
29-May-18 04:58 58.143862 -49.422755 245 39815ft 461kts
29-May-18 04:59 58.089607 -49.642053 245 39820ft 460kts
29-May-18 05:00 58.035158 -49.860348 245 39825ft 459kts
29-May-18 05:01 57.986885 -50.083711 252 39813ft 459kts
29-May-18 05:02 57.951791 -50.314536 253 39808ft 459kts
29-May-18 05:03 57.921777 -50.506084 253 39814ft 458kts
29-May-18 05:04 57.885474 -50.736120 253 39789ft 457kts
29-May-18 05:05 57.848977 -50.964467 252 39790ft 456kts
29-May-18 05:06 57.812039 -51.191940 252 39795ft 456kts
29-May-18 05:07 57.774674 -51.419580 251 39783ft 456kts
29-May-18 05:08 57.736873 -51.646703 251 39786ft 458kts
29-May-18 05:09 57.698527 -51.874125 251 39732ft 459kts
29-May-18 05:10 57.659565 -52.102287 250 39667ft 460kts
29-May-18 05:11 57.620370 -52.329301 250 39650ft 460kts
29-May-18 05:12 57.580720 -52.555659 250 39645ft 460kts
29-May-18 05:13 57.540586 -52.781984 250 39659ft 459kts
29-May-18 05:14 57.500235 -53.006960 250 39676ft 459kts
29-May-18 05:15 57.459490 -53.231373 249 39678ft 458kts
29-May-18 05:16 57.418242 -53.455950 249 39666ft 459kts
29-May-18 05:17 57.376645 -53.679538 249 39663ft 459kts
29-May-18 05:18 57.334630 -53.902889 249 39684ft 460kts
29-May-18 05:19 57.292081 -54.126578 249 39680ft 460kts
29-May-18 05:20 57.249166 -54.349207 248 39668ft 460kts
29-May-18 05:21 57.205893 -54.571212 248 39672ft 460kts
29-May-18 05:22 57.162145 -54.793261 248 39679ft 460kts
29-May-18 05:23 57.118168 -55.014160 248 39669ft 460kts
29-May-18 05:24 57.073786 -55.234459 248 39662ft 460kts
29-May-18 05:25 57.028818 -55.455196 247 39669ft 460kts
29-May-18 05:26 56.983545 -55.674855 247 39634ft 461kts
29-May-18 05:27 56.937921 -55.894076 247 39597ft 461kts
29-May-18 05:28 56.891731 -56.113427 247 39605ft 461kts
29-May-18 05:29 56.845266 -56.331913 247 39610ft 462kts
29-May-18 05:30 56.798146 -56.550943 247 39600ft 463kts
29-May-18 05:31 56.750779 -56.768873 246 39592ft 463kts
29-May-18 05:32 56.702475 -56.986030 246 39600ft 463kts
29-May-18 05:33 56.650859 -57.201565 244 39612ft 464kts
29-May-18 05:34 56.598200 -57.415271 244 39602ft 464kts
29-May-18 05:35 56.545229 -57.628441 244 39651ft 464kts
29-May-18 05:36 56.491610 -57.841939 244 39642ft 465kts
29-May-18 05:37 56.437822 -58.054194 244 39647ft 465kts
29-May-18 05:38 56.383651 -58.265851 244 39686ft 465kts
29-May-18 05:39 56.328872 -58.477808 244 39685ft 465kts
29-May-18 05:40 56.273931 -58.688483 243 39673ft 465kts
29-May-18 05:41 56.218442 -58.899361 243 39667ft 466kts
29-May-18 05:42 56.162686 -59.109181 243 39680ft 466kts
29-May-18 05:43 56.106524 -59.318552 243 39704ft 467kts
29-May-18 05:44 56.049745 -59.528406 243 39716ft 467kts
29-May-18 05:45 55.992732 -59.737096 243 39722ft 468kts
29-May-18 05:46 55.935306 -59.945381 243 39713ft 468kts
29-May-18 05:47 55.877354 -60.153746 243 39710ft 468kts
29-May-18 05:48 55.819250 -60.360771 243 39717ft 468kts
29-May-18 05:49 55.760766 -60.567225 243 39724ft 468kts
29-May-18 05:50 55.701782 -60.773647 243 39716ft 468kts
29-May-18 05:51 55.642621 -60.978778 242 39716ft 468kts
29-May-18 05:52 55.583154 -61.183381 242 39730ft 468kts
29-May-18 05:53 55.523050 -61.388208 242 39728ft 469kts
29-May-18 05:54 55.462765 -61.591933 242 39721ft 469kts
29-May-18 05:55 55.401907 -61.795848 242 39730ft 469kts
29-May-18 05:56 55.340895 -61.998525 242 39741ft 469kts
29-May-18 05:57 55.279421 -62.200806 242 39738ft 471kts
29-May-18 05:58 55.217286 -62.403545 242 39741ft 471kts
29-May-18 05:59 55.155042 -62.605264 242 39761ft 472kts
29-May-18 06:00 55.092347 -62.806482 242 39794ft 472kts
29-May-18 06:01 55.029040 -63.007977 242 39790ft 473kts
29-May-18 06:02 54.965511 -63.208402 242 39805ft 473kts
29-May-18 06:03 54.901671 -63.408311 242 39819ft 473kts
29-May-18 06:04 54.837230 -63.608356 242 39817ft 474kts
29-May-18 06:05 54.772576 -63.807365 242 39857ft 474kts
29-May-18 06:06 54.707565 -64.005904 242 39872ft 475kts
29-May-18 06:07 54.641947 -64.204683 242 39890ft 475kts
29-May-18 06:08 54.576124 -64.402319 242 39905ft 475kts
29-May-18 06:09 54.509798 -64.599989 242 39915ft 476kts
29-May-18 06:10 54.443328 -64.796515 242 39911ft 476kts
29-May-18 06:11 54.376494 -64.992386 242 39912ft 476kts
29-May-18 06:12 54.309121 -65.188419 242 39927ft 476kts
29-May-18 06:13 54.241609 -65.383227 242 39934ft 476kts
29-May-18 06:14 54.173750 -65.577474 242 39929ft 477kts
29-May-18 06:15 54.105402 -65.771801 242 39938ft 477kts
29-May-18 06:16 54.036876 -65.964750 242 39952ft 477kts
29-May-18 06:17 53.968083 -66.157142 241 39965ft 477kts
29-May-18 06:18 53.898756 -66.349613 241 39971ft 477kts
29-May-18 06:19 53.829325 -66.540808 242 39986ft 477kts
29-May-18 06:20 53.759542 -66.731476 242 39985ft 477kts
29-May-18 06:21 53.689171 -66.922278 242 39984ft 478kts
29-May-18 06:22 53.618664 -67.111931 241 40008ft 478kts
29-May-18 06:23 53.547568 -67.301829 241 40009ft 478kts
29-May-18 06:24 53.476337 -67.490647 242 40000ft 479kts
29-May-18 06:25 53.404766 -67.678942 241 40003ft 479kts
29-May-18 06:26 53.332593 -67.867352 241 40012ft 480kts
29-May-18 06:27 53.260367 -68.054521 242 40007ft 480kts
29-May-18 06:28 53.187807 -68.241230 242 40000ft 480kts
29-May-18 06:29 53.114747 -68.427793 242 40013ft 479kts
29-May-18 06:30 53.041695 -68.612912 242 40036ft 479kts
29-May-18 06:31 52.968103 -68.798093 242 40033ft 479kts
29-May-18 06:32 52.894498 -68.981992 242 40032ft 479kts
29-May-18 06:33 52.820629 -69.165096 241 40057ft 479kts
29-May-18 06:34 52.746252 -69.348278 242 40056ft 479kts
29-May-18 06:35 52.671860 -69.530175 242 40065ft 478kts
29-May-18 06:36 52.597229 -69.711261 242 40075ft 478kts
29-May-18 06:37 52.522174 -69.892165 242 40075ft 478kts
29-May-18 06:38 52.447220 -70.071645 242 40079ft 477kts
29-May-18 06:39 52.371903 -70.250483 242 40100ft 477kts
29-May-18 06:40 52.296092 -70.429287 242 40087ft 477kts
29-May-18 06:41 52.220271 -70.607097 242 40095ft 478kts
29-May-18 06:42 52.144101 -70.784387 242 40103ft 478kts
29-May-18 06:43 52.067283 -70.961838 242 40125ft 478kts
29-May-18 06:44 51.990413 -71.138217 242 40151ft 479kts
29-May-18 06:45 51.913084 -71.314546 242 40169ft 478kts
29-May-18 06:46 51.835819 -71.489510 242 40171ft 478kts
29-May-18 06:47 51.758189 -71.664067 242 40170ft 479kts
29-May-18 06:48 51.679990 -71.838762 242 40178ft 479kts
29-May-18 06:49 51.601768 -72.012195 242 40175ft 479kts
29-May-18 06:50 51.523312 -72.185146 242 40225ft 479kts
29-May-18 06:51 51.444487 -72.357711 242 40234ft 478kts
29-May-18 06:52 51.365794 -72.528785 242 40224ft 477kts
29-May-18 06:53 51.286973 -72.699064 242 40233ft 476kts
29-May-18 06:54 51.207742 -72.869118 242 40246ft 476kts
29-May-18 06:55 51.128704 -73.037624 242 40247ft 475kts
29-May-18 06:56 51.049316 -73.205853 242 40243ft 474kts
29-May-18 06:57 50.970034 -73.372729 241 40253ft 474kts
29-May-18 06:58 50.890633 -73.538733 241 40257ft 472kts
29-May-18 06:59 50.813211 -73.706874 246 40250ft 470kts
29-May-18 07:00 50.750523 -73.885641 251 40282ft 462kts
29-May-18 07:01 50.690102 -74.063193 250 40272ft 457kts
29-May-18 07:02 50.629721 -74.239609 250 40268ft 455kts
29-May-18 07:03 50.569425 -74.414512 249 40282ft 455kts
29-May-18 07:04 50.508899 -74.588871 249 40288ft 455kts
29-May-18 07:05 50.447882 -74.763460 249 40280ft 455kts
29-May-18 07:06 50.386868 -74.936868 249 40288ft 454kts
29-May-18 07:07 50.325584 -75.109800 249 40295ft 455kts
29-May-18 07:08 50.263816 -75.282913 248 40288ft 455kts
29-May-18 07:09 50.201996 -75.455142 248 40285ft 455kts
29-May-18 07:10 50.139928 -75.626825 248 40297ft 455kts
29-May-18 07:11 50.077396 -75.798570 248 40303ft 454kts
29-May-18 07:12 50.014878 -75.969206 247 40298ft 454kts
29-May-18 07:13 49.952078 -76.139493 247 40298ft 455kts
29-May-18 07:14 49.888806 -76.310005 247 40313ft 455kts
29-May-18 07:15 49.825431 -76.479576 247 40316ft 455kts
29-May-18 07:16 49.761768 -76.648834 247 40307ft 455kts
29-May-18 07:17 49.697659 -76.818162 246 40307ft 455kts
29-May-18 07:18 49.633539 -76.986469 246 40304ft 455kts
29-May-18 07:19 49.569119 -77.154479 246 40317ft 456kts
29-May-18 07:20 49.514986 -77.294762 246 40316ft 456kts
29-May-18 07:21 49.450018 -77.462190 246 40308ft 456kts
29-May-18 07:22 49.384798 -77.629307 246 40315ft 457kts
29-May-18 07:23 49.319081 -77.796585 245 40322ft 456kts
29-May-18 07:24 49.253285 -77.962906 245 40317ft 457kts
29-May-18 07:25 49.176232 -78.156391 245 40310ft 456kts
29-May-18 07:26 49.109728 -78.322273 245 40304ft 457kts
29-May-18 07:27 49.054287 -78.459772 245 40316ft 457kts
29-May-18 07:28 48.987478 -78.624605 244 40309ft 458kts
29-May-18 07:29 48.920066 -78.789787 244 40298ft 458kts
29-May-18 07:30 48.852694 -78.953943 244 40306ft 458kts
29-May-18 07:31 48.785019 -79.117802 244 40311ft 459kts
29-May-18 07:32 48.716788 -79.281903 243 40300ft 459kts
29-May-18 07:33 48.648512 -79.445199 243 40296ft 460kts
29-May-18 07:34 48.580015 -79.608083 243 40305ft 460kts
29-May-18 07:35 48.511049 -79.771022 243 40296ft 459kts
29-May-18 07:36 48.442092 -79.932901 243 40282ft 459kts
29-May-18 07:37 48.372921 -80.094540 243 40291ft 460kts
29-May-18 07:38 48.303165 -80.256389 243 40291ft 460kts
29-May-18 07:39 48.233410 -80.417292 243 40280ft 460kts
29-May-18 07:40 48.163395 -80.577839 243 40281ft 461kts
29-May-18 07:41 48.092976 -80.738280 243 40291ft 460kts
29-May-18 07:42 48.022655 -80.897641 243 40286ft 459kts
29-May-18 07:43 47.952094 -81.056544 242 40275ft 460kts
29-May-18 07:44 47.881014 -81.215749 242 40278ft 460kts
29-May-18 07:45 47.809936 -81.374075 242 40279ft 460kts
29-May-18 07:46 47.738632 -81.531930 242 40257ft 460kts
29-May-18 07:47 47.667112 -81.689359 242 40259ft 460kts
29-May-18 07:48 47.595132 -81.846888 242 40265ft 460kts
29-May-18 07:49 47.523161 -82.003497 242 40256ft 460kts
29-May-18 07:50 47.450975 -82.159625 242 40246ft 460kts
29-May-18 07:51 47.378431 -82.315841 241 40250ft 460kts
29-May-18 07:52 47.305769 -82.471175 241 40256ft 461kts
29-May-18 07:53 47.232850 -82.626278 241 40239ft 461kts
29-May-18 07:54 47.159462 -82.781609 241 40240ft 462kts
29-May-18 07:55 47.085984 -82.936140 240 40226ft 462kts
29-May-18 07:56 47.012302 -83.090228 240 40224ft 462kts
29-May-18 07:57 46.938179 -83.244430 240 40230ft 462kts
29-May-18 07:58 46.864090 -83.397673 240 40213ft 462kts
29-May-18 07:59 46.789745 -83.550630 239 40212ft 462kts
29-May-18 08:00 46.714888 -83.703841 239 40198ft 463kts
29-May-18 08:01 46.640012 -83.856163 239 40183ft 463kts
29-May-18 08:02 46.564878 -84.008248 238 40182ft 464kts
29-May-18 08:03 46.489433 -84.160071 238 40189ft 464kts
29-May-18 08:04 46.406761 -84.304495 230 40179ft 467kts
29-May-18 08:05 46.303928 -84.419985 215 40176ft 475kts
29-May-18 08:06 46.192261 -84.524065 217 40197ft 478kts
29-May-18 08:07 46.080677 -84.628360 217 40175ft 479kts
29-May-18 08:08 45.968943 -84.732249 216 40166ft 478kts
29-May-18 08:09 45.856874 -84.835972 216 40174ft 478kts
29-May-18 08:10 45.745249 -84.938672 215 40150ft 477kts
29-May-18 08:11 45.633661 -85.040884 215 40145ft 476kts
29-May-18 08:12 45.521712 -85.143047 215 40131ft 476kts
29-May-18 08:13 45.410157 -85.244213 215 40124ft 476kts
29-May-18 08:14 45.298597 -85.344976 215 40137ft 475kts
29-May-18 08:15 45.186730 -85.445573 214 40114ft 475kts
29-May-18 08:16 45.075250 -85.545276 214 40097ft 474kts
29-May-18 08:17 44.963496 -85.644819 214 40086ft 473kts
29-May-18 08:18 44.852223 -85.743457 213 40073ft 472kts
29-May-18 08:19 44.741069 -85.841518 213 40064ft 471kts
29-May-18 08:20 44.629782 -85.939245 212 40071ft 470kts
29-May-18 08:21 44.519050 -86.036078 211 40065ft 469kts
29-May-18 08:22 44.408571 -86.132211 211 40053ft 467kts
29-May-18 08:23 44.297877 -86.228151 211 40051ft 467kts
29-May-18 08:24 44.187526 -86.323265 211 40057ft 467kts
29-May-18 08:25 44.077124 -86.418041 211 40040ft 467kts
29-May-18 08:26 43.966309 -86.512805 211 40034ft 466kts
29-May-18 08:27 43.855931 -86.606764 211 40044ft 466kts
29-May-18 08:28 43.745598 -86.700248 211 40046ft 465kts
29-May-18 08:29 43.634851 -86.793653 210 40036ft 465kts
29-May-18 08:30 43.524513 -86.886353 210 40028ft 465kts
29-May-18 08:31 43.413802 -86.978954 210 40043ft 464kts
29-May-18 08:32 43.303432 -87.070810 210 40044ft 464kts
29-May-18 08:33 43.193120 -87.162332 210 40034ft 464kts
29-May-18 08:34 43.082424 -87.253713 210 40041ft 463kts
29-May-18 08:35 42.972181 -87.344381 210 40052ft 463kts
29-May-18 08:36 42.861920 -87.434640 210 40042ft 462kts
29-May-18 08:37 42.751361 -87.524719 210 40033ft 460kts
29-May-18 08:38 42.642219 -87.613345 210 40041ft 455kts
29-May-18 08:39 42.533803 -87.701013 209 40029ft 453kts
29-May-18 08:40 42.425346 -87.788272 209 40008ft 452kts
29-May-18 08:41 42.317474 -87.874792 209 40007ft 451kts
29-May-18 08:42 42.208338 -87.957714 204 40028ft 451kts
29-May-18 08:43 42.091970 -88.022463 201 40031ft 451kts
29-May-18 08:44 41.976056 -88.085949 201 39999ft 450kts
29-May-18 08:45 41.859936 -88.149106 201 39997ft 449kts
29-May-18 08:46 41.744186 -88.211832 201 39989ft 449kts
29-May-18 08:47 41.628387 -88.274282 201 39992ft 449kts
29-May-18 08:48 41.512535 -88.337811 202 39996ft 449kts
29-May-18 08:49 41.397973 -88.404188 202 39977ft 450kts
29-May-18 08:50 41.283101 -88.470259 202 39977ft 450kts
29-May-18 08:51 41.167744 -88.536394 202 39993ft 451kts
29-May-18 08:52 41.052667 -88.602047 202 39993ft 451kts
29-May-18 08:53 40.937132 -88.667819 202 39987ft 451kts
29-May-18 08:54 40.822763 -88.735440 209 39987ft 450kts
29-May-18 08:55 40.721109 -88.831549 215 39986ft 452kts
29-May-18 08:56 40.619876 -88.929973 214 39997ft 453kts
29-May-18 08:57 40.518013 -89.028877 214 40004ft 454kts
29-May-18 08:58 40.416185 -89.127369 214 39989ft 455kts
29-May-18 08:59 40.313729 -89.226088 215 39978ft 456kts
29-May-18 09:00 40.211255 -89.324375 215 39975ft 458kts
29-May-18 09:01 40.108524 -89.422595 214 39971ft 458kts
29-May-18 09:02 40.005167 -89.520912 214 39963ft 459kts
29-May-18 09:03 39.901995 -89.618884 214 39969ft 460kts
29-May-18 09:04 39.796903 -89.713874 211 39976ft 461kts
29-May-18 09:05 39.688617 -89.803641 211 39971ft 460kts
29-May-18 09:06 39.580890 -89.893096 211 39960ft 460kts
29-May-18 09:07 39.472845 -89.982433 211 39967ft 459kts
29-May-18 09:08 39.365076 -90.071203 211 39968ft 460kts
29-May-18 09:09 39.257052 -90.159854 211 39959ft 460kts
29-May-18 09:10 39.148643 -90.248508 211 39949ft 460kts
29-May-18 09:11 39.040560 -90.336498 211 39951ft 460kts
29-May-18 09:12 38.932509 -90.424206 211 39943ft 459kts
29-May-18 09:13 38.819259 -90.500886 199 39937ft 461kts
29-May-18 09:14 38.697631 -90.552168 197 39945ft 459kts
29-May-18 09:15 38.576685 -90.604103 197 39948ft 458kts
29-May-18 09:16 38.455506 -90.655704 198 39945ft 458kts
29-May-18 09:17 38.334808 -90.706982 198 39944ft 457kts
29-May-18 09:18 38.213719 -90.758190 197 39941ft 457kts
29-May-18 09:19 38.092969 -90.809168 197 39944ft 458kts
29-May-18 09:20 37.972002 -90.859937 197 39953ft 458kts
29-May-18 09:21 37.850711 -90.910755 197 39952ft 458kts
29-May-18 09:22 37.729712 -90.961237 197 39941ft 459kts
29-May-18 09:23 37.608498 -91.011621 197 39952ft 460kts
29-May-18 09:24 37.486631 -91.062126 197 39948ft 460kts
29-May-18 09:25 37.365040 -91.112310 197 39935ft 460kts
29-May-18 09:26 37.243348 -91.162387 197 39939ft 461kts
29-May-18 09:27 37.121218 -91.212492 197 39946ft 461kts
29-May-18 09:28 36.999400 -91.262236 197 39937ft 461kts
29-May-18 09:29 36.877182 -91.312103 197 39934ft 461kts
29-May-18 09:30 36.755280 -91.361568 197 39941ft 461kts
29-May-18 09:31 36.633236 -91.410898 197 39920ft 462kts
29-May-18 09:32 36.510521 -91.460388 197 39914ft 463kts
29-May-18 09:33 36.387976 -91.509622 196 39918ft 464kts
29-May-18 09:34 36.265288 -91.558783 197 39907ft 464kts
29-May-18 09:35 36.141900 -91.608007 196 39895ft 465kts
29-May-18 09:36 36.018717 -91.657076 196 39895ft 466kts
29-May-18 09:37 35.895007 -91.706278 197 39905ft 466kts
29-May-18 09:38 35.771495 -91.755128 197 39901ft 467kts
29-May-18 09:39 35.647957 -91.803788 196 39892ft 467kts
29-May-18 09:40 35.523965 -91.852459 196 39894ft 467kts
29-May-18 09:41 35.400388 -91.900818 196 39891ft 467kts
29-May-18 09:42 35.276771 -91.948953 196 39877ft 467kts
29-May-18 09:43 35.152786 -91.997211 196 39875ft 467kts
29-May-18 09:44 35.049365 -92.037282 197 39886ft 470kts
29-May-18 09:45 34.924358 -92.085607 197 39884ft 473kts
29-May-18 09:46 34.798413 -92.134159 197 39876ft 474kts
29-May-18 09:47 34.672076 -92.180644 192 39876ft 476kts
29-May-18 09:48 34.540712 -92.206319 188 39887ft 477kts
29-May-18 09:49 34.409890 -92.231150 188 39877ft 476kts
29-May-18 09:50 34.279096 -92.255685 188 39867ft 476kts
29-May-18 09:51 34.147886 -92.280335 188 39876ft 476kts
29-May-18 09:52 34.017104 -92.304716 188 39890ft 476kts
29-May-18 09:53 33.886262 -92.329060 188 39888ft 477kts
29-May-18 09:54 33.754799 -92.353460 188 39884ft 477kts
29-May-18 09:55 33.623664 -92.377718 188 39889ft 478kts
29-May-18 09:56 33.491769 -92.402023 189 39887ft 479kts
29-May-18 09:57 33.359966 -92.426276 189 39874ft 480kts
29-May-18 09:58 33.227789 -92.450485 189 39870ft 482kts
29-May-18 09:59 33.094751 -92.474834 189 39886ft 483kts
29-May-18 10:00 32.961706 -92.499074 189 39882ft 485kts
29-May-18 10:01 32.828255 -92.523311 189 39880ft 486kts
29-May-18 10:02 32.694084 -92.547637 189 39891ft 487kts
29-May-18 10:03 32.560048 -92.571821 189 39902ft 488kts
29-May-18 10:04 32.425854 -92.596014 189 39893ft 488kts
29-May-18 10:05 32.291082 -92.620233 189 39892ft 489kts
29-May-18 10:06 32.156558 -92.644386 189 39888ft 490kts
29-May-18 10:07 32.022733 -92.673809 203 39851ft 486kts
29-May-18 10:08 31.907672 -92.755645 216 39860ft 484kts
29-May-18 10:09 31.810078 -92.863347 226 39858ft 482kts
29-May-18 10:10 31.712772 -92.972227 226 39857ft 482kts
29-May-18 10:11 31.615977 -93.080713 226 39866ft 481kts
29-May-18 10:12 31.572974 -93.128795 226 39853ft 481kts
29-May-18 10:13 31.572974 -93.128795 226 39853ft 481kts
29-May-18 10:14 31.572974 -93.128795 226 39853ft 481kts
29-May-18 10:15 31.572974 -93.128795 226 39853ft 481kts
29-May-18 10:16 31.572974 -93.128795 226 39853ft 481kts
29-May-18 10:17 31.572974 -93.128795 226 39853ft 481kts
29-May-18 10:18 31.572974 -93.128795 226 39853ft 481kts
29-May-18 10:19 31.572974 -93.128795 226 39853ft 481kts
29-May-18 10:20 31.572974 -93.128795 226 39853ft 481kts
29-May-18 10:21 31.572974 -93.128795 226 39853ft 481kts
29-May-18 10:22 31.572974 -93.128795 226 39853ft 481kts
29-May-18 10:23 31.572974 -93.128795 226 39853ft 481kts
29-May-18 10:24 31.572974 -93.128795 226 39853ft 481kts
29-May-18 10:25 31.572974 -93.128795 226 39853ft 481kts
29-May-18 10:26 31.572974 -93.128795 226 39853ft 481kts
29-May-18 10:27 31.572974 -93.128795 226 39853ft 481kts
29-May-18 10:28 31.572974 -93.128795 226 39853ft 481kts
29-May-18 10:29 31.572974 -93.128795 226 39853ft 481kts
29-May-18 10:30 31.572974 -93.128795 226 39853ft 481kts
29-May-18 10:31 31.572974 -93.128795 226 39853ft 481kts
29-May-18 10:32 31.572974 -93.128795 226 39853ft 481kts
29-May-18 10:33 31.572974 -93.128795 226 39853ft 481kts
29-May-18 10:34 31.572974 -93.128795 226 39853ft 481kts
29-May-18 10:35 31.572974 -93.128795 226 39853ft 481kts
29-May-18 10:36 31.572974 -93.128795 226 39853ft 481kts
29-May-18 10:37 31.572974 -93.128795 226 39853ft 481kts
29-May-18 10:38 31.572974 -93.128795 226 39853ft 481kts
29-May-18 10:39 31.572974 -93.128795 226 39853ft 481kts
29-May-18 10:40 31.572974 -93.128795 226 39853ft 481kts
29-May-18 10:41 31.572974 -93.128795 226 39853ft 481kts
29-May-18 10:42 31.572974 -93.128795 226 39853ft 481kts
29-May-18 10:43 31.572974 -93.128795 226 39853ft 481kts
29-May-18 10:44 31.572974 -93.128795 226 39853ft 481kts
29-May-18 10:45 31.572974 -93.128795 226 39853ft 481kts
29-May-18 10:46 31.572974 -93.128795 226 39853ft 481kts
29-May-18 10:47 31.572974 -93.128795 226 39853ft 481kts
29-May-18 10:48 31.572974 -93.128795 226 39853ft 481kts
29-May-18 10:49 31.572974 -93.128795 226 39853ft 481kts
29-May-18 10:50 31.572974 -93.128795 226 39853ft 481kts
29-May-18 10:51 31.572974 -93.128795 226 39853ft 481kts
29-May-18 10:52 31.572974 -93.128795 226 39853ft 481kts
29-May-18 10:53 31.572974 -93.128795 226 39853ft 481kts
29-May-18 10:54 31.572974 -93.128795 226 39853ft 481kts
29-May-18 10:55 31.572974 -93.128795 226 39853ft 481kts
29-May-18 10:56 31.572974 -93.128795 226 39853ft 481kts
29-May-18 10:57 31.572974 -93.128795 226 39853ft 481kts
29-May-18 10:58 31.572974 -93.128795 226 39853ft 481kts
29-May-18 10:59 31.572974 -93.128795 226 39853ft 481kts
29-May-18 11:00 31.572974 -93.128795 226 39853ft 481kts
29-May-18 11:01 31.572974 -93.128795 226 39853ft 481kts
29-May-18 11:02 31.572974 -93.128795 226 39853ft 481kts
29-May-18 11:03 31.572974 -93.128795 226 39853ft 481kts
29-May-18 11:04 31.572974 -93.128795 226 39853ft 481kts
29-May-18 11:05 31.572974 -93.128795 226 39853ft 481kts
29-May-18 11:06 31.572974 -93.128795 226 39853ft 481kts
29-May-18 11:07 31.572974 -93.128795 226 39853ft 481kts
29-May-18 11:08 31.572974 -93.128795 226 39853ft 481kts
29-May-18 11:09 31.572974 -93.128795 226 39853ft 481kts
29-May-18 11:10 31.572974 -93.128795 226 39853ft 481kts
29-May-18 11:11 31.572974 -93.128795 226 39853ft 481kts
29-May-18 11:12 31.572974 -93.128795 226 39853ft 481kts
29-May-18 11:13 31.572974 -93.128795 226 39853ft 481kts
29-May-18 11:14 31.572974 -93.128795 226 39853ft 481kts
29-May-18 11:15 31.572974 -93.128795 226 39853ft 481kts
29-May-18 11:16 31.572974 -93.128795 226 39853ft 481kts
29-May-18 11:17 31.572974 -93.128795 226 39853ft 481kts
29-May-18 11:18 31.572974 -93.128795 226 39853ft 481kts
29-May-18 11:19 31.572974 -93.128795 226 39853ft 481kts
29-May-18 11:20 31.572974 -93.128795 226 39853ft 481kts
29-May-18 11:21 31.572974 -93.128795 226 39853ft 481kts
29-May-18 11:22 31.572974 -93.128795 226 39853ft 481kts
29-May-18 11:23 31.572974 -93.128795 226 39853ft 481kts
29-May-18 11:24 31.572974 -93.128795 226 39853ft 481kts
29-May-18 11:25 31.572974 -93.128795 226 39853ft 481kts
29-May-18 11:26 31.572974 -93.128795 226 39853ft 481kts
29-May-18 11:27 31.572974 -93.128795 226 39853ft 481kts
29-May-18 11:28 31.572974 -93.128795 226 39853ft 481kts
29-May-18 11:29 31.572974 -93.128795 226 39853ft 481kts
29-May-18 11:30 31.572974 -93.128795 226 39853ft 481kts
29-May-18 11:31 31.572974 -93.128795 226 39853ft 481kts
29-May-18 11:32 31.572974 -93.128795 226 39853ft 481kts
29-May-18 11:33 31.572974 -93.128795 226 39853ft 481kts
29-May-18 11:34 31.572974 -93.128795 226 39853ft 481kts
29-May-18 11:35 31.572974 -93.128795 226 39853ft 481kts
29-May-18 11:36 31.572974 -93.128795 226 39853ft 481kts
29-May-18 11:37 31.572974 -93.128795 226 39853ft 481kts
29-May-18 11:38 31.572974 -93.128795 226 39853ft 481kts
29-May-18 11:39 31.572974 -93.128795 226 39853ft 481kts
29-May-18 11:40 31.572974 -93.128795 226 39853ft 481kts
29-May-18 11:41 31.572974 -93.128795 226 39853ft 481kts
29-May-18 11:42 31.572974 -93.128795 226 39853ft 481kts
29-May-18 11:43 31.572974 -93.128795 226 39853ft 481kts
29-May-18 11:44 31.572974 -93.128795 226 39853ft 481kts
29-May-18 11:45 31.572974 -93.128795 226 39853ft 481kts
29-May-18 11:46 31.572974 -93.128795 226 39853ft 481kts
29-May-18 11:47 31.572974 -93.128795 226 39853ft 481kts
29-May-18 11:48 31.572974 -93.128795 226 39853ft 481kts
29-May-18 11:49 31.572974 -93.128795 226 39853ft 481kts
29-May-18 11:50 31.572974 -93.128795 226 39853ft 481kts
29-May-18 11:51 31.550515 -93.153875 226 39861ft 481kts
29-May-18 11:52 31.453399 -93.262197 227 38307ft 490kts
29-May-18 11:53 31.354005 -93.372564 227 36319ft 491kts
29-May-18 11:54 31.255404 -93.481851 227 34390ft 488kts
29-May-18 11:55 31.157382 -93.590088 227 32591ft 483kts
29-May-18 11:56 31.059679 -93.697701 227 30739ft 479kts
29-May-18 11:57 30.963796 -93.802981 227 28876ft 469kts
29-May-18 11:58 30.870010 -93.905690 227 27137ft 455kts
29-May-18 11:59 30.779364 -94.005126 227 25524ft 443kts
29-May-18 12:00 30.690578 -94.102246 227 23872ft 435kts
29-May-18 12:01 30.602666 -94.196754 225 22229ft 426kts
29-May-18 12:02 30.515502 -94.286612 225 20013ft 412kts
29-May-18 12:03 30.431631 -94.373215 225 17849ft 395kts
29-May-18 12:04 30.363775 -94.440541 222 16239ft 374kts
29-May-18 12:05 30.285474 -94.514921 222 14478ft 354kts
29-May-18 12:06 30.211234 -94.585566 222 13015ft 341kts
29-May-18 12:07 30.136363 -94.652523 219 11896ft 337kts
29-May-18 12:08 30.062118 -94.718581 219 10464ft 342kts
29-May-18 12:09 29.995669 -94.794924 255 7849ft 332kts
29-May-18 12:10 29.992550 -94.892736 271 7248ft 301kts
29-May-18 12:11 29.993934 -94.985805 269 5934ft 285kts
29-May-18 12:12 29.993572 -95.073679 269 4313ft 267kts
29-May-18 12:13 29.993567 -95.150147 268 3061ft 211kts
29-May-18 12:14 29.993563 -95.206741 268 2095ft 150kts
29-May-18 12:15 29.993474 -95.253828 267 1338ft 143kts
29-May-18 12:16 29.993461 -95.299290 267 573ft 141kts
29-May-18 12:17 29.993381 -95.341758 270 110ft 85kts
29-May-18 12:18 29.991249 -95.350341 201 110ft 14kts
29-May-18 12:19 29.990877 -95.345337 95 110ft 20kts
29-May-18 12:20 29.990822 -95.337973 89 110ft 14kts
29-May-18 12:21 29.989189 -95.335928 90 111ft 6kts
29-May-18 12:22 29.988445 -95.335464 180 111ft 1kts
29-May-18 12:23 29.988399 -95.335464 180 111ft 0kts
29-May-18 12:24 29.988399 -95.335464 180 111ft 0kts
29-May-18 12:25 29.988399 -95.335464 180 111ft 0kts

Navigation Log

Ident Type
Flight plan parsing failed, navigation log unavailable